sensor_id;sensor_type;location;lat;lon;timestamp;P1;durP1;ratioP1;P2;durP2;ratioP2
13263;SDS011;6700;51.988;7.646;2023-03-29T00:01:18;6.63;;;5.97;;
13263;SDS011;6700;51.988;7.646;2023-03-29T00:04:02;6.80;;;5.80;;
13263;SDS011;6700;51.988;7.646;2023-03-29T00:06:29;6.20;;;5.53;;
13263;SDS011;6700;51.988;7.646;2023-03-29T00:08:58;7.33;;;5.27;;
13263;SDS011;6700;51.988;7.646;2023-03-29T00:11:26;6.83;;;5.60;;
13263;SDS011;6700;51.988;7.646;2023-03-29T00:13:54;7.30;;;5.47;;
13263;SDS011;6700;51.988;7.646;2023-03-29T00:16:21;8.43;;;5.10;;
13263;SDS011;6700;51.988;7.646;2023-03-29T00:18:48;8.37;;;5.07;;
13263;SDS011;6700;51.988;7.646;2023-03-29T00:21:16;7.23;;;5.27;;
13263;SDS011;6700;51.988;7.646;2023-03-29T00:23:43;8.83;;;5.67;;
13263;SDS011;6700;51.988;7.646;2023-03-29T00:26:10;7.03;;;5.67;;
13263;SDS011;6700;51.988;7.646;2023-03-29T00:28:37;7.33;;;5.20;;
13263;SDS011;6700;51.988;7.646;2023-03-29T00:31:06;5.33;;;4.73;;
13263;SDS011;6700;51.988;7.646;2023-03-29T00:33:33;5.13;;;4.63;;
13263;SDS011;6700;51.988;7.646;2023-03-29T00:36:01;6.53;;;4.80;;
13263;SDS011;6700;51.988;7.646;2023-03-29T00:38:29;8.57;;;4.73;;
13263;SDS011;6700;51.988;7.646;2023-03-29T00:40:57;5.23;;;4.27;;
13263;SDS011;6700;51.988;7.646;2023-03-29T00:43:24;4.47;;;4.00;;
13263;SDS011;6700;51.988;7.646;2023-03-29T00:45:51;4.50;;;4.10;;
13263;SDS011;6700;51.988;7.646;2023-03-29T00:48:20;10.30;;;4.70;;
13263;SDS011;6700;51.988;7.646;2023-03-29T00:50:49;6.37;;;4.60;;
13263;SDS011;6700;51.988;7.646;2023-03-29T00:53:19;4.73;;;4.23;;
13263;SDS011;6700;51.988;7.646;2023-03-29T00:55:48;4.93;;;4.37;;
13263;SDS011;6700;51.988;7.646;2023-03-29T00:58:19;4.63;;;4.10;;
13263;SDS011;6700;51.988;7.646;2023-03-29T01:00:49;5.73;;;4.07;;
13263;SDS011;6700;51.988;7.646;2023-03-29T01:03:18;4.60;;;3.90;;
13263;SDS011;6700;51.988;7.646;2023-03-29T01:05:50;4.07;;;3.67;;
13263;SDS011;6700;51.988;7.646;2023-03-29T01:08:20;4.70;;;3.80;;
13263;SDS011;6700;51.988;7.646;2023-03-29T01:13:38;5.07;;;3.70;;
13263;SDS011;6700;51.988;7.646;2023-03-29T01:16:07;7.57;;;3.83;;
13263;SDS011;6700;51.988;7.646;2023-03-29T01:18:36;4.67;;;3.67;;
13263;SDS011;6700;51.988;7.646;2023-03-29T01:21:14;4.37;;;3.50;;
13263;SDS011;6700;51.988;7.646;2023-03-29T01:26:29;5.93;;;3.50;;
13263;SDS011;6700;51.988;7.646;2023-03-29T01:28:59;5.17;;;3.90;;
13263;SDS011;6700;51.988;7.646;2023-03-29T01:31:29;5.20;;;4.23;;
13263;SDS011;6700;51.988;7.646;2023-03-29T01:34:06;7.13;;;4.30;;
13263;SDS011;6700;51.988;7.646;2023-03-29T01:36:37;4.07;;;3.73;;
13263;SDS011;6700;51.988;7.646;2023-03-29T01:39:05;7.03;;;4.13;;
13263;SDS011;6700;51.988;7.646;2023-03-29T01:44:14;7.07;;;4.03;;
13263;SDS011;6700;51.988;7.646;2023-03-29T01:49:20;4.57;;;4.17;;
13263;SDS011;6700;51.988;7.646;2023-03-29T01:54:27;6.80;;;4.23;;
13263;SDS011;6700;51.988;7.646;2023-03-29T01:56:57;4.53;;;4.13;;
13263;SDS011;6700;51.988;7.646;2023-03-29T01:59:26;4.80;;;3.53;;
13263;SDS011;6700;51.988;7.646;2023-03-29T02:01:55;4.40;;;4.00;;
13263;SDS011;6700;51.988;7.646;2023-03-29T02:04:27;3.67;;;3.37;;
13263;SDS011;6700;51.988;7.646;2023-03-29T02:06:56;3.70;;;3.40;;
13263;SDS011;6700;51.988;7.646;2023-03-29T02:09:24;8.23;;;4.80;;
13263;SDS011;6700;51.988;7.646;2023-03-29T02:11:54;5.30;;;3.80;;
13263;SDS011;6700;51.988;7.646;2023-03-29T02:14:22;4.43;;;4.03;;
13263;SDS011;6700;51.988;7.646;2023-03-29T02:16:50;4.63;;;4.23;;
13263;SDS011;6700;51.988;7.646;2023-03-29T02:19:18;4.47;;;4.03;;
13263;SDS011;6700;51.988;7.646;2023-03-29T02:21:54;5.00;;;4.10;;
13263;SDS011;6700;51.988;7.646;2023-03-29T02:24:22;5.23;;;3.90;;
13263;SDS011;6700;51.988;7.646;2023-03-29T02:26:50;4.27;;;3.80;;
13263;SDS011;6700;51.988;7.646;2023-03-29T02:29:17;6.60;;;4.30;;
13263;SDS011;6700;51.988;7.646;2023-03-29T02:31:49;4.47;;;3.90;;
13263;SDS011;6700;51.988;7.646;2023-03-29T02:34:25;5.23;;;4.20;;
13263;SDS011;6700;51.988;7.646;2023-03-29T02:36:58;7.70;;;4.30;;
13263;SDS011;6700;51.988;7.646;2023-03-29T02:39:26;6.67;;;3.90;;
13263;SDS011;6700;51.988;7.646;2023-03-29T02:41:54;4.47;;;3.93;;
13263;SDS011;6700;51.988;7.646;2023-03-29T02:44:26;6.00;;;4.43;;
13263;SDS011;6700;51.988;7.646;2023-03-29T02:46:55;5.90;;;4.30;;
13263;SDS011;6700;51.988;7.646;2023-03-29T02:49:23;4.87;;;4.10;;
13263;SDS011;6700;51.988;7.646;2023-03-29T02:51:51;5.87;;;3.97;;
13263;SDS011;6700;51.988;7.646;2023-03-29T02:54:21;5.50;;;3.97;;
13263;SDS011;6700;51.988;7.646;2023-03-29T02:56:53;5.10;;;3.70;;
13263;SDS011;6700;51.988;7.646;2023-03-29T02:59:20;7.63;;;5.37;;
13263;SDS011;6700;51.988;7.646;2023-03-29T03:01:48;5.63;;;4.13;;
13263;SDS011;6700;51.988;7.646;2023-03-29T03:04:15;5.53;;;4.70;;
13263;SDS011;6700;51.988;7.646;2023-03-29T03:06:43;5.07;;;4.40;;
13263;SDS011;6700;51.988;7.646;2023-03-29T03:09:10;7.30;;;4.30;;
13263;SDS011;6700;51.988;7.646;2023-03-29T03:11:37;5.33;;;4.37;;
13263;SDS011;6700;51.988;7.646;2023-03-29T03:14:05;6.13;;;4.10;;
13263;SDS011;6700;51.988;7.646;2023-03-29T03:16:32;6.97;;;4.40;;
13263;SDS011;6700;51.988;7.646;2023-03-29T03:19:00;5.63;;;4.07;;
13263;SDS011;6700;51.988;7.646;2023-03-29T03:21:27;4.30;;;3.83;;
13263;SDS011;6700;51.988;7.646;2023-03-29T03:23:54;10.40;;;4.30;;
13263;SDS011;6700;51.988;7.646;2023-03-29T03:26:22;5.77;;;4.57;;
13263;SDS011;6700;51.988;7.646;2023-03-29T03:28:55;5.07;;;4.23;;
13263;SDS011;6700;51.988;7.646;2023-03-29T03:31:22;4.83;;;4.37;;
13263;SDS011;6700;51.988;7.646;2023-03-29T03:33:49;5.30;;;4.30;;
13263;SDS011;6700;51.988;7.646;2023-03-29T03:36:17;6.90;;;4.30;;
13263;SDS011;6700;51.988;7.646;2023-03-29T03:38:44;8.27;;;5.33;;
13263;SDS011;6700;51.988;7.646;2023-03-29T03:41:12;5.83;;;5.23;;
13263;SDS011;6700;51.988;7.646;2023-03-29T03:43:39;4.67;;;4.03;;
13263;SDS011;6700;51.988;7.646;2023-03-29T03:46:08;5.00;;;4.50;;
13263;SDS011;6700;51.988;7.646;2023-03-29T03:48:36;6.97;;;4.07;;
13263;SDS011;6700;51.988;7.646;2023-03-29T03:51:03;5.17;;;4.63;;
13263;SDS011;6700;51.988;7.646;2023-03-29T03:53:30;5.40;;;4.57;;
13263;SDS011;6700;51.988;7.646;2023-03-29T03:55:58;4.70;;;4.10;;
13263;SDS011;6700;51.988;7.646;2023-03-29T03:58:27;6.53;;;4.27;;
13263;SDS011;6700;51.988;7.646;2023-03-29T04:00:54;5.10;;;4.60;;
13263;SDS011;6700;51.988;7.646;2023-03-29T04:03:21;5.43;;;4.10;;
13263;SDS011;6700;51.988;7.646;2023-03-29T04:05:49;4.90;;;4.37;;
13263;SDS011;6700;51.988;7.646;2023-03-29T04:08:16;5.23;;;4.70;;
13263;SDS011;6700;51.988;7.646;2023-03-29T04:10:50;7.27;;;4.57;;
13263;SDS011;6700;51.988;7.646;2023-03-29T04:13:18;7.53;;;5.00;;
13263;SDS011;6700;51.988;7.646;2023-03-29T04:15:45;4.37;;;3.97;;
13263;SDS011;6700;51.988;7.646;2023-03-29T04:18:14;7.50;;;4.60;;
13263;SDS011;6700;51.988;7.646;2023-03-29T04:20:42;9.20;;;4.53;;
13263;SDS011;6700;51.988;7.646;2023-03-29T04:23:09;7.43;;;4.50;;
13263;SDS011;6700;51.988;7.646;2023-03-29T04:25:36;5.47;;;4.33;;
13263;SDS011;6700;51.988;7.646;2023-03-29T04:28:03;6.00;;;4.17;;
13263;SDS011;6700;51.988;7.646;2023-03-29T04:30:31;6.03;;;4.90;;
13263;SDS011;6700;51.988;7.646;2023-03-29T04:32:58;5.60;;;4.20;;
13263;SDS011;6700;51.988;7.646;2023-03-29T04:35:25;6.97;;;4.83;;
13263;SDS011;6700;51.988;7.646;2023-03-29T04:37:52;10.73;;;4.33;;
13263;SDS011;6700;51.988;7.646;2023-03-29T04:40:22;6.37;;;3.83;;
13263;SDS011;6700;51.988;7.646;2023-03-29T04:42:50;4.57;;;4.17;;
13263;SDS011;6700;51.988;7.646;2023-03-29T04:45:18;5.67;;;4.07;;
13263;SDS011;6700;51.988;7.646;2023-03-29T04:47:45;4.93;;;3.50;;
13263;SDS011;6700;51.988;7.646;2023-03-29T04:50:12;6.70;;;4.30;;
13263;SDS011;6700;51.988;7.646;2023-03-29T04:52:39;4.10;;;3.70;;
13263;SDS011;6700;51.988;7.646;2023-03-29T04:55:07;4.90;;;3.77;;
13263;SDS011;6700;51.988;7.646;2023-03-29T04:57:34;8.43;;;4.40;;
13263;SDS011;6700;51.988;7.646;2023-03-29T05:00:02;4.77;;;4.10;;
13263;SDS011;6700;51.988;7.646;2023-03-29T05:02:38;4.27;;;3.73;;
13263;SDS011;6700;51.988;7.646;2023-03-29T05:05:08;4.23;;;3.80;;
13263;SDS011;6700;51.988;7.646;2023-03-29T05:07:35;4.50;;;3.53;;
13263;SDS011;6700;51.988;7.646;2023-03-29T05:10:03;9.90;;;3.87;;
13263;SDS011;6700;51.988;7.646;2023-03-29T05:12:30;7.93;;;4.53;;
13263;SDS011;6700;51.988;7.646;2023-03-29T05:14:57;4.30;;;3.50;;
13263;SDS011;6700;51.988;7.646;2023-03-29T05:17:25;7.77;;;4.47;;
13263;SDS011;6700;51.988;7.646;2023-03-29T05:19:52;4.47;;;3.93;;
13263;SDS011;6700;51.988;7.646;2023-03-29T05:22:20;5.90;;;4.80;;
13263;SDS011;6700;51.988;7.646;2023-03-29T05:24:48;6.43;;;4.33;;
13263;SDS011;6700;51.988;7.646;2023-03-29T05:27:17;6.83;;;4.23;;
13263;SDS011;6700;51.988;7.646;2023-03-29T05:29:46;5.23;;;4.73;;
13263;SDS011;6700;51.988;7.646;2023-03-29T05:32:14;6.57;;;4.87;;
13263;SDS011;6700;51.988;7.646;2023-03-29T05:34:41;5.87;;;4.67;;
13263;SDS011;6700;51.988;7.646;2023-03-29T05:37:08;7.27;;;4.67;;
13263;SDS011;6700;51.988;7.646;2023-03-29T05:39:35;7.50;;;5.20;;
13263;SDS011;6700;51.988;7.646;2023-03-29T05:42:03;6.93;;;5.70;;
13263;SDS011;6700;51.988;7.646;2023-03-29T05:44:31;7.13;;;5.97;;
13263;SDS011;6700;51.988;7.646;2023-03-29T05:46:58;5.93;;;5.00;;
13263;SDS011;6700;51.988;7.646;2023-03-29T05:49:25;8.87;;;5.80;;
13263;SDS011;6700;51.988;7.646;2023-03-29T05:51:52;6.83;;;5.37;;
13263;SDS011;6700;51.988;7.646;2023-03-29T05:54:22;8.43;;;6.60;;
13263;SDS011;6700;51.988;7.646;2023-03-29T05:56:49;9.23;;;6.10;;
13263;SDS011;6700;51.988;7.646;2023-03-29T05:59:17;8.93;;;7.00;;
13263;SDS011;6700;51.988;7.646;2023-03-29T06:01:44;10.33;;;7.03;;
13263;SDS011;6700;51.988;7.646;2023-03-29T06:04:12;8.37;;;7.50;;
13263;SDS011;6700;51.988;7.646;2023-03-29T06:06:40;12.23;;;8.13;;
13263;SDS011;6700;51.988;7.646;2023-03-29T06:09:07;15.57;;;7.57;;
13263;SDS011;6700;51.988;7.646;2023-03-29T06:11:35;8.67;;;7.60;;
13263;SDS011;6700;51.988;7.646;2023-03-29T06:14:02;10.00;;;6.73;;
13263;SDS011;6700;51.988;7.646;2023-03-29T06:16:29;7.00;;;6.30;;
13263;SDS011;6700;51.988;7.646;2023-03-29T06:18:57;11.57;;;6.77;;
13263;SDS011;6700;51.988;7.646;2023-03-29T06:21:24;8.60;;;6.27;;
13263;SDS011;6700;51.988;7.646;2023-03-29T06:23:53;8.43;;;7.20;;
13263;SDS011;6700;51.988;7.646;2023-03-29T06:26:20;12.40;;;6.80;;
13263;SDS011;6700;51.988;7.646;2023-03-29T06:28:48;8.00;;;6.57;;
13263;SDS011;6700;51.988;7.646;2023-03-29T06:31:17;9.63;;;6.00;;
13263;SDS011;6700;51.988;7.646;2023-03-29T06:33:46;10.67;;;6.50;;
13263;SDS011;6700;51.988;7.646;2023-03-29T06:36:14;6.80;;;6.17;;
13263;SDS011;6700;51.988;7.646;2023-03-29T06:38:42;13.10;;;6.70;;
13263;SDS011;6700;51.988;7.646;2023-03-29T06:41:10;7.17;;;5.87;;
13263;SDS011;6700;51.988;7.646;2023-03-29T06:43:38;10.70;;;7.00;;
13263;SDS011;6700;51.988;7.646;2023-03-29T06:46:05;10.37;;;7.00;;
13263;SDS011;6700;51.988;7.646;2023-03-29T06:48:38;8.20;;;6.13;;
13263;SDS011;6700;51.988;7.646;2023-03-29T06:51:06;7.10;;;5.90;;
13263;SDS011;6700;51.988;7.646;2023-03-29T06:53:33;10.90;;;7.57;;
13263;SDS011;6700;51.988;7.646;2023-03-29T06:56:01;9.27;;;6.10;;
13263;SDS011;6700;51.988;7.646;2023-03-29T06:58:34;7.23;;;5.27;;
13263;SDS011;6700;51.988;7.646;2023-03-29T07:01:01;7.87;;;6.10;;
13263;SDS011;6700;51.988;7.646;2023-03-29T07:03:29;10.80;;;6.13;;
13263;SDS011;6700;51.988;7.646;2023-03-29T07:05:59;7.30;;;5.30;;
13263;SDS011;6700;51.988;7.646;2023-03-29T07:08:29;13.93;;;6.73;;
13263;SDS011;6700;51.988;7.646;2023-03-29T07:10:56;9.83;;;5.53;;
13263;SDS011;6700;51.988;7.646;2023-03-29T07:13:24;9.33;;;5.50;;
13263;SDS011;6700;51.988;7.646;2023-03-29T07:15:52;8.53;;;5.47;;
13263;SDS011;6700;51.988;7.646;2023-03-29T07:18:19;10.20;;;5.77;;
13263;SDS011;6700;51.988;7.646;2023-03-29T07:20:47;8.57;;;5.57;;
13263;SDS011;6700;51.988;7.646;2023-03-29T07:23:14;6.53;;;5.40;;
13263;SDS011;6700;51.988;7.646;2023-03-29T07:25:42;6.87;;;5.20;;
13263;SDS011;6700;51.988;7.646;2023-03-29T07:28:09;5.97;;;5.20;;
13263;SDS011;6700;51.988;7.646;2023-03-29T07:30:37;8.73;;;5.60;;
13263;SDS011;6700;51.988;7.646;2023-03-29T07:33:04;7.10;;;5.40;;
13263;SDS011;6700;51.988;7.646;2023-03-29T07:35:31;6.30;;;5.27;;
13263;SDS011;6700;51.988;7.646;2023-03-29T07:37:59;8.37;;;5.80;;
13263;SDS011;6700;51.988;7.646;2023-03-29T07:40:26;6.63;;;5.10;;
13263;SDS011;6700;51.988;7.646;2023-03-29T07:42:53;6.63;;;5.33;;
13263;SDS011;6700;51.988;7.646;2023-03-29T07:45:22;5.40;;;4.90;;
13263;SDS011;6700;51.988;7.646;2023-03-29T07:47:54;10.83;;;4.83;;
13263;SDS011;6700;51.988;7.646;2023-03-29T07:50:22;8.10;;;5.70;;
13263;SDS011;6700;51.988;7.646;2023-03-29T07:52:49;9.47;;;5.57;;
13263;SDS011;6700;51.988;7.646;2023-03-29T07:55:16;8.00;;;5.33;;
13263;SDS011;6700;51.988;7.646;2023-03-29T07:57:43;8.30;;;5.60;;
13263;SDS011;6700;51.988;7.646;2023-03-29T08:00:11;5.33;;;4.83;;
13263;SDS011;6700;51.988;7.646;2023-03-29T08:02:42;8.93;;;4.80;;
13263;SDS011;6700;51.988;7.646;2023-03-29T08:05:10;9.67;;;4.80;;
13263;SDS011;6700;51.988;7.646;2023-03-29T08:07:54;10.13;;;5.33;;
13263;SDS011;6700;51.988;7.646;2023-03-29T08:10:22;6.07;;;4.50;;
13263;SDS011;6700;51.988;7.646;2023-03-29T08:12:49;6.60;;;4.60;;
13263;SDS011;6700;51.988;7.646;2023-03-29T08:15:17;10.80;;;5.40;;
13263;SDS011;6700;51.988;7.646;2023-03-29T08:17:44;10.93;;;5.10;;
13263;SDS011;6700;51.988;7.646;2023-03-29T08:20:12;7.57;;;4.77;;
13263;SDS011;6700;51.988;7.646;2023-03-29T08:22:40;7.70;;;5.33;;
13263;SDS011;6700;51.988;7.646;2023-03-29T08:25:08;7.90;;;4.97;;
13263;SDS011;6700;51.988;7.646;2023-03-29T08:27:37;6.07;;;5.40;;
13263;SDS011;6700;51.988;7.646;2023-03-29T08:30:05;6.23;;;4.87;;
13263;SDS011;6700;51.988;7.646;2023-03-29T08:32:33;6.93;;;4.20;;
13263;SDS011;6700;51.988;7.646;2023-03-29T08:35:00;10.70;;;4.90;;
13263;SDS011;6700;51.988;7.646;2023-03-29T08:37:30;4.90;;;4.07;;
13263;SDS011;6700;51.988;7.646;2023-03-29T08:39:57;5.60;;;4.37;;
13263;SDS011;6700;51.988;7.646;2023-03-29T08:45:09;7.50;;;4.43;;
13263;SDS011;6700;51.988;7.646;2023-03-29T08:50:40;7.33;;;3.97;;
13263;SDS011;6700;51.988;7.646;2023-03-29T08:53:12;7.67;;;4.70;;
13263;SDS011;6700;51.988;7.646;2023-03-29T08:55:42;6.90;;;5.00;;
13263;SDS011;6700;51.988;7.646;2023-03-29T08:58:12;7.27;;;4.93;;
13263;SDS011;6700;51.988;7.646;2023-03-29T09:00:41;9.57;;;4.37;;
13263;SDS011;6700;51.988;7.646;2023-03-29T09:03:10;8.30;;;4.37;;
13263;SDS011;6700;51.988;7.646;2023-03-29T09:05:43;12.90;;;5.07;;
13263;SDS011;6700;51.988;7.646;2023-03-29T09:08:13;4.53;;;4.10;;
13263;SDS011;6700;51.988;7.646;2023-03-29T09:10:44;9.33;;;4.07;;
13263;SDS011;6700;51.988;7.646;2023-03-29T09:15:53;5.37;;;4.23;;
13263;SDS011;6700;51.988;7.646;2023-03-29T09:21:21;7.60;;;4.50;;
13263;SDS011;6700;51.988;7.646;2023-03-29T09:26:47;7.83;;;4.57;;
13263;SDS011;6700;51.988;7.646;2023-03-29T09:31:51;8.13;;;4.17;;
13263;SDS011;6700;51.988;7.646;2023-03-29T09:34:22;7.90;;;4.87;;
13263;SDS011;6700;51.988;7.646;2023-03-29T09:36:50;9.07;;;4.70;;
13263;SDS011;6700;51.988;7.646;2023-03-29T09:39:18;10.37;;;5.07;;
13263;SDS011;6700;51.988;7.646;2023-03-29T09:41:50;7.87;;;4.50;;
13263;SDS011;6700;51.988;7.646;2023-03-29T09:44:20;10.53;;;4.20;;
13263;SDS011;6700;51.988;7.646;2023-03-29T09:50:09;11.00;;;4.53;;
13263;SDS011;6700;51.988;7.646;2023-03-29T09:52:55;6.80;;;4.70;;
13263;SDS011;6700;51.988;7.646;2023-03-29T09:55:24;6.30;;;4.93;;
13263;SDS011;6700;51.988;7.646;2023-03-29T09:57:52;7.10;;;5.30;;
13263;SDS011;6700;51.988;7.646;2023-03-29T10:00:20;6.67;;;5.23;;
13263;SDS011;6700;51.988;7.646;2023-03-29T10:02:51;9.00;;;4.80;;
13263;SDS011;6700;51.988;7.646;2023-03-29T10:05:19;7.80;;;4.63;;
13263;SDS011;6700;51.988;7.646;2023-03-29T10:07:48;6.93;;;5.13;;
13263;SDS011;6700;51.988;7.646;2023-03-29T10:12:50;6.20;;;5.30;;
13263;SDS011;6700;51.988;7.646;2023-03-29T10:15:18;7.60;;;5.33;;
13263;SDS011;6700;51.988;7.646;2023-03-29T10:18:01;6.37;;;5.03;;
13263;SDS011;6700;51.988;7.646;2023-03-29T10:20:29;8.33;;;5.80;;
13263;SDS011;6700;51.988;7.646;2023-03-29T10:22:57;8.90;;;5.73;;
13263;SDS011;6700;51.988;7.646;2023-03-29T10:25:26;12.77;;;6.40;;
13263;SDS011;6700;51.988;7.646;2023-03-29T10:27:54;6.17;;;5.27;;
13263;SDS011;6700;51.988;7.646;2023-03-29T10:30:24;9.03;;;5.50;;
13263;SDS011;6700;51.988;7.646;2023-03-29T10:32:54;7.13;;;5.53;;
13263;SDS011;6700;51.988;7.646;2023-03-29T10:35:36;13.13;;;6.00;;
13263;SDS011;6700;51.988;7.646;2023-03-29T10:38:05;7.00;;;5.60;;
13263;SDS011;6700;51.988;7.646;2023-03-29T10:40:40;9.53;;;5.83;;
13263;SDS011;6700;51.988;7.646;2023-03-29T10:43:21;7.50;;;5.33;;
13263;SDS011;6700;51.988;7.646;2023-03-29T10:45:50;9.67;;;6.83;;
13263;SDS011;6700;51.988;7.646;2023-03-29T10:48:22;13.13;;;5.90;;
13263;SDS011;6700;51.988;7.646;2023-03-29T10:50:50;9.80;;;6.10;;
13263;SDS011;6700;51.988;7.646;2023-03-29T10:53:22;9.20;;;6.20;;
13263;SDS011;6700;51.988;7.646;2023-03-29T11:00:56;12.43;;;7.20;;
13263;SDS011;6700;51.988;7.646;2023-03-29T11:06:31;11.90;;;6.87;;
13263;SDS011;6700;51.988;7.646;2023-03-29T11:08:58;9.03;;;6.50;;
13263;SDS011;6700;51.988;7.646;2023-03-29T11:17:03;8.63;;;7.40;;
13263;SDS011;6700;51.988;7.646;2023-03-29T11:19:37;11.83;;;7.93;;
13263;SDS011;6700;51.988;7.646;2023-03-29T11:27:34;11.57;;;9.27;;
13263;SDS011;6700;51.988;7.646;2023-03-29T11:35:36;9.97;;;8.97;;
13263;SDS011;6700;51.988;7.646;2023-03-29T11:41:14;12.03;;;8.73;;
13263;SDS011;6700;51.988;7.646;2023-03-29T11:46:12;8.17;;;7.37;;
13263;SDS011;6700;51.988;7.646;2023-03-29T11:48:52;8.80;;;7.90;;
13263;SDS011;6700;51.988;7.646;2023-03-29T11:51:22;9.70;;;8.13;;
13263;SDS011;6700;51.988;7.646;2023-03-29T11:53:59;10.00;;;7.43;;
13263;SDS011;6700;51.988;7.646;2023-03-29T11:56:32;10.03;;;7.83;;
13263;SDS011;6700;51.988;7.646;2023-03-29T11:59:04;9.13;;;8.20;;
13263;SDS011;6700;51.988;7.646;2023-03-29T12:01:34;8.60;;;7.57;;
13263;SDS011;6700;51.988;7.646;2023-03-29T12:04:06;8.67;;;7.90;;
13263;SDS011;6700;51.988;7.646;2023-03-29T12:06:40;9.97;;;7.47;;
13263;SDS011;6700;51.988;7.646;2023-03-29T12:09:16;9.20;;;7.53;;
13263;SDS011;6700;51.988;7.646;2023-03-29T12:11:49;8.60;;;6.80;;
13263;SDS011;6700;51.988;7.646;2023-03-29T12:14:24;10.47;;;7.50;;
13263;SDS011;6700;51.988;7.646;2023-03-29T12:16:56;8.80;;;8.00;;
13263;SDS011;6700;51.988;7.646;2023-03-29T12:19:36;9.43;;;7.87;;
13263;SDS011;6700;51.988;7.646;2023-03-29T12:22:08;9.63;;;7.83;;
13263;SDS011;6700;51.988;7.646;2023-03-29T12:24:37;8.43;;;7.63;;
13263;SDS011;6700;51.988;7.646;2023-03-29T12:29:40;8.03;;;6.80;;
13263;SDS011;6700;51.988;7.646;2023-03-29T12:37:23;8.27;;;6.53;;
13263;SDS011;6700;51.988;7.646;2023-03-29T12:39:59;10.67;;;6.67;;
13263;SDS011;6700;51.988;7.646;2023-03-29T12:42:27;18.77;;;9.30;;
13263;SDS011;6700;51.988;7.646;2023-03-29T12:44:57;9.37;;;8.10;;
13263;SDS011;6700;51.988;7.646;2023-03-29T12:47:26;11.30;;;7.27;;
13263;SDS011;6700;51.988;7.646;2023-03-29T12:49:55;12.73;;;10.80;;
13263;SDS011;6700;51.988;7.646;2023-03-29T12:52:29;8.70;;;7.13;;
13263;SDS011;6700;51.988;7.646;2023-03-29T12:54:58;8.20;;;6.70;;
13263;SDS011;6700;51.988;7.646;2023-03-29T12:57:44;8.93;;;6.47;;
13263;SDS011;6700;51.988;7.646;2023-03-29T13:00:19;9.33;;;7.60;;
13263;SDS011;6700;51.988;7.646;2023-03-29T13:02:57;9.00;;;6.90;;
13263;SDS011;6700;51.988;7.646;2023-03-29T13:05:26;9.03;;;6.10;;
13263;SDS011;6700;51.988;7.646;2023-03-29T13:07:54;9.40;;;6.70;;
13263;SDS011;6700;51.988;7.646;2023-03-29T13:10:39;11.77;;;7.13;;
13263;SDS011;6700;51.988;7.646;2023-03-29T13:13:11;26.83;;;21.70;;
13263;SDS011;6700;51.988;7.646;2023-03-29T13:15:41;7.70;;;6.90;;
13263;SDS011;6700;51.988;7.646;2023-03-29T13:18:13;7.23;;;6.53;;
13263;SDS011;6700;51.988;7.646;2023-03-29T13:26:10;7.00;;;6.30;;
13263;SDS011;6700;51.988;7.646;2023-03-29T13:28:52;6.90;;;6.20;;
13263;SDS011;6700;51.988;7.646;2023-03-29T13:34:00;9.37;;;5.80;;
13263;SDS011;6700;51.988;7.646;2023-03-29T13:39:00;13.57;;;5.93;;
13263;SDS011;6700;51.988;7.646;2023-03-29T13:41:32;6.53;;;5.50;;
13263;SDS011;6700;51.988;7.646;2023-03-29T13:43:59;5.67;;;5.10;;
13263;SDS011;6700;51.988;7.646;2023-03-29T13:46:39;6.90;;;5.33;;
13263;SDS011;6700;51.988;7.646;2023-03-29T13:49:16;8.20;;;5.27;;
13263;SDS011;6700;51.988;7.646;2023-03-29T13:57:08;6.53;;;5.47;;
13263;SDS011;6700;51.988;7.646;2023-03-29T14:05:10;5.60;;;5.00;;
13263;SDS011;6700;51.988;7.646;2023-03-29T14:07:38;7.33;;;5.10;;
13263;SDS011;6700;51.988;7.646;2023-03-29T14:10:09;8.83;;;6.20;;
13263;SDS011;6700;51.988;7.646;2023-03-29T14:12:37;11.47;;;5.70;;
13263;SDS011;6700;51.988;7.646;2023-03-29T14:15:16;7.97;;;5.50;;
13263;SDS011;6700;51.988;7.646;2023-03-29T14:17:44;9.47;;;5.73;;
13263;SDS011;6700;51.988;7.646;2023-03-29T14:20:13;8.23;;;5.70;;
13263;SDS011;6700;51.988;7.646;2023-03-29T14:22:41;11.13;;;5.67;;
13263;SDS011;6700;51.988;7.646;2023-03-29T14:25:13;7.83;;;6.20;;
13263;SDS011;6700;51.988;7.646;2023-03-29T14:27:42;8.27;;;5.87;;
13263;SDS011;6700;51.988;7.646;2023-03-29T14:30:20;11.90;;;6.33;;
13263;SDS011;6700;51.988;7.646;2023-03-29T14:32:48;9.57;;;6.23;;
13263;SDS011;6700;51.988;7.646;2023-03-29T14:35:16;9.23;;;6.27;;
13263;SDS011;6700;51.988;7.646;2023-03-29T14:37:43;12.63;;;6.90;;
13263;SDS011;6700;51.988;7.646;2023-03-29T14:40:16;6.67;;;6.07;;
13263;SDS011;6700;51.988;7.646;2023-03-29T14:42:44;8.57;;;6.57;;
13263;SDS011;6700;51.988;7.646;2023-03-29T14:45:13;9.87;;;6.93;;
13263;SDS011;6700;51.988;7.646;2023-03-29T14:47:41;10.67;;;6.20;;
13263;SDS011;6700;51.988;7.646;2023-03-29T14:50:17;8.10;;;6.27;;
13263;SDS011;6700;51.988;7.646;2023-03-29T14:52:45;8.80;;;6.27;;
13263;SDS011;6700;51.988;7.646;2023-03-29T14:55:15;8.63;;;6.00;;
13263;SDS011;6700;51.988;7.646;2023-03-29T14:57:44;10.40;;;6.03;;
13263;SDS011;6700;51.988;7.646;2023-03-29T15:00:21;7.57;;;6.47;;
13263;SDS011;6700;51.988;7.646;2023-03-29T15:02:54;9.60;;;6.37;;
13263;SDS011;6700;51.988;7.646;2023-03-29T15:05:29;8.00;;;6.40;;
13263;SDS011;6700;51.988;7.646;2023-03-29T15:07:57;7.80;;;6.93;;
13263;SDS011;6700;51.988;7.646;2023-03-29T15:10:24;15.60;;;6.50;;
13263;SDS011;6700;51.988;7.646;2023-03-29T15:12:52;18.60;;;7.30;;
13263;SDS011;6700;51.988;7.646;2023-03-29T15:15:19;10.57;;;7.00;;
13263;SDS011;6700;51.988;7.646;2023-03-29T15:17:49;12.90;;;6.43;;
13263;SDS011;6700;51.988;7.646;2023-03-29T15:20:19;7.33;;;6.47;;
13263;SDS011;6700;51.988;7.646;2023-03-29T15:23:33;9.10;;;6.60;;
13263;SDS011;6700;51.988;7.646;2023-03-29T15:25:45;9.43;;;6.40;;
13263;SDS011;6700;51.988;7.646;2023-03-29T15:31:00;10.93;;;6.57;;
13263;SDS011;6700;51.988;7.646;2023-03-29T15:33:35;7.77;;;6.30;;
13263;SDS011;6700;51.988;7.646;2023-03-29T15:36:04;10.93;;;6.23;;
13263;SDS011;6700;51.988;7.646;2023-03-29T15:38:32;8.83;;;6.27;;
13263;SDS011;6700;51.988;7.646;2023-03-29T15:41:10;9.07;;;6.57;;
13263;SDS011;6700;51.988;7.646;2023-03-29T15:43:37;7.63;;;6.57;;
13263;SDS011;6700;51.988;7.646;2023-03-29T15:46:04;8.77;;;6.17;;
13263;SDS011;6700;51.988;7.646;2023-03-29T15:48:32;10.53;;;6.60;;
13263;SDS011;6700;51.988;7.646;2023-03-29T15:50:59;7.83;;;5.97;;
13263;SDS011;6700;51.988;7.646;2023-03-29T15:53:31;8.10;;;6.20;;
13263;SDS011;6700;51.988;7.646;2023-03-29T15:55:59;9.07;;;5.63;;
13263;SDS011;6700;51.988;7.646;2023-03-29T15:58:29;10.00;;;6.03;;
13263;SDS011;6700;51.988;7.646;2023-03-29T16:01:39;7.47;;;5.83;;
13263;SDS011;6700;51.988;7.646;2023-03-29T16:03:48;10.10;;;5.73;;
13263;SDS011;6700;51.988;7.646;2023-03-29T16:06:16;8.00;;;5.10;;
13263;SDS011;6700;51.988;7.646;2023-03-29T16:08:43;9.33;;;5.53;;
13263;SDS011;6700;51.988;7.646;2023-03-29T16:11:11;7.67;;;5.27;;
13263;SDS011;6700;51.988;7.646;2023-03-29T16:13:38;8.03;;;5.20;;
13263;SDS011;6700;51.988;7.646;2023-03-29T16:16:05;6.37;;;4.70;;
13263;SDS011;6700;51.988;7.646;2023-03-29T16:18:33;7.07;;;4.60;;
13263;SDS011;6700;51.988;7.646;2023-03-29T16:21:01;4.97;;;4.43;;
13263;SDS011;6700;51.988;7.646;2023-03-29T16:23:28;8.10;;;5.10;;
13263;SDS011;6700;51.988;7.646;2023-03-29T16:25:55;5.07;;;4.60;;
13263;SDS011;6700;51.988;7.646;2023-03-29T16:28:24;5.93;;;5.03;;
13263;SDS011;6700;51.988;7.646;2023-03-29T16:30:51;9.43;;;5.43;;
13263;SDS011;6700;51.988;7.646;2023-03-29T16:33:18;9.30;;;5.33;;
13263;SDS011;6700;51.988;7.646;2023-03-29T16:35:45;7.60;;;4.87;;
13263;SDS011;6700;51.988;7.646;2023-03-29T16:38:12;5.77;;;4.77;;
13263;SDS011;6700;51.988;7.646;2023-03-29T16:40:40;7.03;;;5.00;;
13263;SDS011;6700;51.988;7.646;2023-03-29T16:43:11;9.10;;;5.63;;
13263;SDS011;6700;51.988;7.646;2023-03-29T16:45:40;5.03;;;4.50;;
13263;SDS011;6700;51.988;7.646;2023-03-29T16:48:17;8.90;;;5.70;;
13263;SDS011;6700;51.988;7.646;2023-03-29T16:50:44;7.47;;;4.77;;
13263;SDS011;6700;51.988;7.646;2023-03-29T16:53:15;8.10;;;5.87;;